Southeastern Grand Banks: Past 24 Hour Conditions

 

Blanc-Sablon Airport

09:00 AM AST 17 April 2014
This table is a summary of hourly weather conditions for the past 24 hours.
Date / Time
(AST)
Wind(knots) Conditions Visibility(km) Pressure(kPa) Air tempC) Relative humidity(%) Dew pointC) Wind Chill
17 April 2014
9:00 W 17 Sunny 24 103.4 -8 46 -18 -17
8:00 W 19 Sunny 24 103.4 -9 51 -17 -19
7:00 W 16 Sunny 24 103.2 -9 51 -17 -18
6:00 W 15 gust 21 Sunny 24 103.1 -9 58 -16 -18
5:00 WSW 8 Sunny 24 103.0 -9 69 -14 -16
4:00 W 9 Clear 24 102.7 -8 58 -15 -15
3:00 W 13 Clear 24 102.6 -7 58 -14 -15
2:00 W 11 Clear 24 102.4 -7 65 -12 -14
1:00 W 13 gust 18 Clear 24 102.2 -5 66 -11 -13
0:00 W 17 Clear 24 102.0 -4 66 -10 -12
16 April 2014
23:00 W 18 Mainly Clear 24 101.8 -3 62 -9 -10
22:00 W 13 gust 19 Mostly Cloudy 24 101.6 -1 69 -6 -8
21:00 W 20 gust 25 Cloudy 24 101.3 0 66 -6 -7
20:00 SW 23 gust 31 Cloudy 24 101.0 0 88 -2 -8
19:00 SW 33 gust 40 Cloudy 24 100.7 -1 84 -3 -10
18:00 SW 28 gust 36 Cloudy 24 100.5 0 87 -2 -9
17:00 SSW 23 gust 29 Light Rain 24 100.3 0 92 -1 *
16:00 SW 17 gust 22 Light Rain 16 100.2 1 96 0 *
15:00 SW 20 gust 34 Light Rain 6 100.1 2 99 2 *
14:00 SSW 12 gust 19 Fog 6 100.0 4 100 4 *
13:00 W 4 Light Rain 2 100.1 4 100 4 *
12:00 SSW 19 Light Rain 3 100.0 6 100 6 *
11:00 S 19 gust 28 Light Rain 5 100.1 6 99 6 *
10:00 S 16 Light Rain 5 100.2 5 99 5 *
9:00 SSW 25 gust 32 Light Rain 0.4 100.2 6 99 6 *
 
Map of Atlantic - Newfoundland marine weather areas Southwestern Grand Banks - 44138 Banquereau - 44139 Tail of the Bank - 44140 Nickerson Bank - 44251 Northeast Burgeo Bank - 44255 Blanc-Sablon Airport Cap Whittle Chevery Natashquan Airport Heath Point Miscou Island Grand Étang Ingonish Beach North Mountain St.Paul Island J.A. Douglas McCurdy Sydney Airport Charlottetown Airport East Point North Cape Argentia Bonavista Burgeo Cape Race Corner Brook Daniel's Harbour Englee Ferolle Point La Scie Port aux Basques Rocky Harbour Sagona Island St. Anthony Airport St. John's Int'l Airport St. Lawrence Stephenville Airport Twillingate Winterland Wreckhouse Cartwright Airport Mary's Harbour Grates Cove Pool's Island Marticot Island Long Pond Îles de la Madeleine Airport
Legend: buoyBuoy land stationLand Station